createdAt,value
2022-09-12T00:04:12.306Z,100615.91
2022-09-12T00:09:12.185Z,100536.09
2022-09-12T00:14:14.332Z,100550.00
2022-09-12T00:19:27.528Z,100582.50
2022-09-12T00:24:24.956Z,100514.09
2022-09-12T00:29:34.137Z,100517.47
2022-09-12T00:34:42.300Z,100592.09
2022-09-12T00:39:56.189Z,100574.16
2022-09-12T00:46:06.494Z,100499.72
2022-09-12T00:51:16.624Z,100511.28
2022-09-12T00:56:19.931Z,100527.41
2022-09-12T01:01:17.631Z,100595.28
2022-09-12T01:06:24.936Z,100564.97
2022-09-12T01:11:24.804Z,100589.28
2022-09-12T01:16:22.571Z,100565.97
2022-09-12T01:21:34.186Z,100527.19
2022-09-12T01:26:57.723Z,100496.34
2022-09-12T01:32:06.735Z,100596.03
2022-09-12T01:37:12.971Z,100521.50
2022-09-12T01:42:25.768Z,100565.59
2022-09-12T01:47:36.459Z,100603.34
2022-09-12T01:52:39.053Z,100555.84
2022-09-12T01:57:40.826Z,100553.66
2022-09-12T02:07:47.759Z,100536.84
2022-09-12T02:12:51.483Z,100585.69
2022-09-12T02:17:52.316Z,100582.16
2022-09-12T02:23:01.754Z,100585.50
2022-09-12T02:28:06.655Z,100584.31
2022-09-12T02:33:17.087Z,100531.91
2022-09-12T02:38:22.540Z,100543.25
2022-09-12T02:43:20.472Z,100579.66
2022-09-12T02:48:23.776Z,100559.28
2022-09-12T02:53:22.804Z,100511.53
2022-09-12T02:58:28.653Z,100576.75
2022-09-12T03:03:56.132Z,100564.06
2022-09-12T03:09:08.123Z,100550.56
2022-09-12T03:14:20.640Z,100597.47
2022-09-12T03:19:25.283Z,100520.50
2022-09-12T03:24:31.467Z,100513.41
2022-09-12T03:29:39.985Z,100535.34
2022-09-12T03:34:40.880Z,100530.16
2022-09-12T03:39:42.069Z,100509.25
2022-09-12T03:44:39.347Z,100608.69
2022-09-12T03:49:41.667Z,100550.72
2022-09-12T03:54:42.308Z,100540.28
2022-09-12T03:59:43.270Z,100576.09
2022-09-12T04:04:43.338Z,100556.22
2022-09-12T04:09:45.592Z,100570.56
2022-09-12T04:15:01.637Z,100553.22
2022-09-12T04:20:14.147Z,100558.41
2022-09-12T04:25:15.395Z,100635.84
2022-09-12T04:30:15.256Z,100636.28
2022-09-12T04:35:24.817Z,100585.00
2022-09-12T04:40:49.307Z,100618.09
2022-09-12T04:45:52.470Z,100646.38
2022-09-12T04:50:56.436Z,100631.47
2022-09-12T04:56:05.719Z,100601.50
2022-09-12T05:01:10.970Z,100617.53
2022-09-12T05:06:15.174Z,100610.53
2022-09-12T05:11:24.802Z,100696.19
2022-09-12T05:16:26.794Z,100636.44
2022-09-12T05:21:35.285Z,100623.13
2022-09-12T05:26:54.749Z,100652.63
2022-09-12T05:31:53.710Z,100628.19
2022-09-12T05:36:58.347Z,100686.31
2022-09-12T05:42:18.386Z,100661.53
2022-09-12T05:47:28.290Z,100620.78
2022-09-12T05:52:41.601Z,100646.91
2022-09-12T05:58:09.937Z,100613.47
2022-09-12T06:03:34.935Z,100693.63
2022-09-12T06:08:44.677Z,100666.19
2022-09-12T06:14:07.337Z,100700.59
2022-09-12T06:19:32.258Z,100693.38
2022-09-12T11:15:04.088Z,100524.50
2022-09-12T11:20:42.554Z,100487.66
2022-09-12T11:25:47.472Z,100540.22
2022-09-12T11:31:00.043Z,100506.97
2022-09-12T11:36:07.073Z,100529.91
2022-09-12T11:41:23.965Z,100468.81
2022-09-12T11:46:40.835Z,100501.06
2022-09-12T11:52:03.923Z,100484.34
2022-09-12T11:57:18.455Z,100456.75
2022-09-12T12:08:23.275Z,100481.53
2022-09-12T12:13:25.707Z,100480.25
2022-09-12T12:18:24.568Z,100492.88
2022-09-12T12:23:32.992Z,100448.84
2022-09-12T12:29:00.327Z,100471.06
2022-09-12T12:34:56.597Z,100445.47
2022-09-12T12:40:24.680Z,100438.31
2022-09-12T12:46:23.239Z,100462.88
2022-09-12T12:51:42.951Z,100373.69
2022-09-12T12:57:13.100Z,100423.44
2022-09-12T13:02:43.662Z,100366.13
2022-09-12T13:08:15.022Z,100389.09
2022-09-12T13:13:33.339Z,100423.81
2022-09-12T13:18:43.361Z,100415.28
2022-09-12T13:23:45.053Z,100400.94
2022-09-12T13:28:49.612Z,100449.19
2022-09-12T13:33:55.971Z,100478.31
2022-09-12T13:40:00.599Z,100449.00
2022-09-12T13:45:37.512Z,100476.56
2022-09-12T13:50:54.097Z,100447.31
2022-09-12T13:55:57.511Z,100376.13
2022-09-12T14:01:04.764Z,100417.31
2022-09-12T14:06:03.160Z,100454.63
2022-09-12T14:12:11.862Z,100480.03
2022-09-12T14:17:33.625Z,100481.22
2022-09-12T14:22:34.322Z,100474.06
2022-09-12T14:27:40.194Z,100473.19
2022-09-12T14:33:02.873Z,100431.31
2022-09-12T14:38:39.419Z,100378.75
2022-09-12T14:44:03.729Z,100393.13
2022-09-12T14:49:08.615Z,100386.28
2022-09-12T14:54:42.061Z,100464.91
2022-09-12T14:59:40.458Z,100443.19
2022-09-12T15:05:29.716Z,100403.69
2022-09-12T15:10:36.466Z,100410.38
2022-09-12T15:15:34.568Z,100438.91
2022-09-12T15:20:35.790Z,100401.78
2022-09-12T15:25:54.462Z,100447.72
2022-09-12T15:30:58.781Z,100517.53
2022-09-12T15:36:10.222Z,100514.25
2022-09-12T15:41:39.101Z,100519.47
2022-09-12T15:47:04.996Z,100425.81
2022-09-12T15:52:13.454Z,100424.78
2022-09-12T15:58:11.105Z,100529.91
2022-09-12T16:03:18.153Z,100528.16
2022-09-12T16:08:18.646Z,100533.81
2022-09-12T16:13:47.977Z,100419.19
2022-09-12T16:18:46.805Z,100477.28
2022-09-12T16:23:54.544Z,100420.69
2022-09-12T16:29:00.363Z,100545.66
2022-09-12T16:40:09.376Z,100551.81
2022-09-12T16:50:38.760Z,100549.31
2022-09-12T16:55:39.101Z,100537.91
2022-09-12T17:00:38.051Z,100575.94
2022-09-12T17:05:37.982Z,100582.94
2022-09-12T17:11:05.168Z,100590.09
2022-09-12T17:16:06.914Z,100566.72
2022-09-12T17:21:48.375Z,100601.34
2022-09-12T17:26:48.575Z,100519.00
2022-09-12T17:31:55.456Z,100654.28
2022-09-12T17:36:56.173Z,100637.06
2022-09-12T17:47:08.080Z,100643.97
2022-09-12T17:53:20.071Z,100669.91
2022-09-12T17:59:32.769Z,100524.41
2022-09-12T18:04:37.354Z,100590.19
2022-09-12T18:09:35.841Z,100647.59
2022-09-12T18:14:34.476Z,100670.41
2022-09-12T18:19:31.944Z,100643.44
2022-09-12T18:24:30.506Z,100625.41
2022-09-12T18:29:40.279Z,100629.97
2022-09-12T18:34:41.203Z,100580.72
2022-09-12T18:39:38.156Z,100566.50
2022-09-12T18:44:38.493Z,100573.38
2022-09-12T18:49:36.891Z,100647.13
2022-09-12T18:54:40.872Z,100640.38
2022-09-12T18:59:47.369Z,100557.56
2022-09-12T19:04:44.569Z,100674.47
2022-09-12T19:09:53.938Z,100668.75
2022-09-12T19:14:52.672Z,100651.13
2022-09-12T19:19:56.991Z,100580.94
2022-09-12T19:24:56.385Z,100627.94
2022-09-12T19:29:59.047Z,100628.72
2022-09-12T19:34:56.588Z,100681.47
2022-09-12T19:39:57.067Z,100658.06
2022-09-12T19:44:55.522Z,100615.38
2022-09-12T19:49:54.838Z,100703.09
2022-09-12T19:54:54.162Z,100678.03
2022-09-12T19:59:53.892Z,100630.66
2022-09-12T20:04:51.888Z,100706.91
2022-09-12T20:09:49.233Z,100716.44
2022-09-12T20:14:49.136Z,100680.16
2022-09-12T20:19:53.430Z,100679.78
2022-09-12T20:24:50.887Z,100703.91
2022-09-12T20:29:48.995Z,100625.97
2022-09-12T20:34:46.356Z,100642.69
2022-09-12T20:39:58.835Z,100709.28
2022-09-12T20:44:56.262Z,100695.53
2022-09-12T20:49:53.512Z,100715.44
2022-09-12T20:54:54.277Z,100751.66
2022-09-12T21:00:00.860Z,100683.16
2022-09-12T21:04:58.035Z,100675.31
2022-09-12T21:09:56.014Z,100736.69
2022-09-12T21:14:55.764Z,100777.41
2022-09-12T21:20:19.897Z,100661.34
2022-09-12T21:25:19.682Z,100746.72
2022-09-12T21:31:12.293Z,100787.06
2022-09-12T21:36:29.686Z,100764.34
2022-09-12T21:41:28.477Z,100722.59
2022-09-12T21:46:28.333Z,100759.25
2022-09-12T21:51:28.961Z,100787.84
2022-09-12T21:56:25.869Z,100764.59
2022-09-12T22:01:23.429Z,100792.28
2022-09-12T22:06:22.496Z,100724.25
2022-09-12T22:11:28.669Z,100791.66
2022-09-12T22:16:26.501Z,100805.94
2022-09-12T22:21:23.833Z,100797.81
2022-09-12T22:26:31.341Z,100802.91
2022-09-12T22:31:29.101Z,100786.19
2022-09-12T22:36:30.459Z,100740.09
2022-09-12T22:41:28.403Z,100787.19
2022-09-12T22:46:30.087Z,100807.63
2022-09-12T22:51:29.910Z,100749.34
2022-09-12T22:56:36.605Z,100740.06
2022-09-12T23:01:56.335Z,100771.94
2022-09-12T23:06:57.491Z,100787.53
2022-09-12T23:11:54.465Z,100775.09
2022-09-12T23:16:52.185Z,100798.41
2022-09-12T23:21:48.760Z,100808.06
2022-09-12T23:26:46.224Z,100731.03
2022-09-12T23:31:43.157Z,100753.50
2022-09-12T23:36:39.973Z,100732.09
2022-09-12T23:41:39.883Z,100695.75
2022-09-12T23:46:40.889Z,100775.91
2022-09-12T23:51:39.083Z,100808.41
2022-09-12T23:56:36.931Z,100818.59
